Date,TemperatureHighF,TemperatureAvgF,TemperatureLowF,DewpointHighF,DewpointAvgF,DewpointLowF,HumidityHigh,HumidityAvg,HumidityLow,PressureMaxIn,PressureMinIn,WindSpeedMaxMPH,WindSpeedAvgMPH,GustSpeedMaxMPH,PrecipitationSumIn
2013-1-1,77,66,54,68,61,51,93,84,70,30.05,29.90,7,5,18,0.21
2013-1-2,54,49,44,51,45,41,91,87,80,30.23,30.04,8,5,17,0.11
2013-1-3,49,44,42,42,35,28,93,72,46,30.37,30.19,10,4,20,0.52
2013-1-4,56,47,40,39,32,28,78,56,37,30.44,30.32,9,3,17,0.01
2013-1-5,53,50,47,43,40,36,81,70,61,30.35,30.22,7,4,14,0.00
2013-1-6,52,49,46,47,45,42,94,85,71,30.28,30.15,9,4,17,0.37
2013-1-7,54,50,43,47,44,39,90,80,70,30.31,30.17,9,4,15,0.01
2013-1-8,64,57,51,62,53,46,96,89,79,30.19,30.07,6,4,15,0.48
2013-1-9,68,65,59,67,63,58,96,94,93,30.17,30.06,8,5,18,0.82
2013-1-10,69,66,63,68,64,61,96,95,89,30.16,29.90,9,4,20,1.35
2013-1-11,77,70,64,70,67,62,96,91,80,30.10,29.99,8,2,17,0.01
2013-1-12,78,71,67,72,68,66,96,89,71,30.06,29.92,9,3,20,0.00
2013-1-13,77,69,54,72,66,51,95,91,82,30.04,29.88,9,4,18,0.15
2013-1-14,57,51,43,55,49,41,95,94,93,30.11,30.03,10,4,20,0.38
2013-1-15,57,51,47,55,50,46,96,95,93,30.06,29.93,6,2,10,0.33
2013-1-16,49,43,40,48,41,37,96,92,87,30.14,29.96,8,5,16,0.36
2013-1-17,53,46,39,38,36,33,90,70,51,30.41,30.14,12,6,20,0.01
2013-1-18,55,46,38,43,38,35,94,76,59,30.53,30.38,9,3,18,0.00
2013-1-19,63,52,39,50,44,37,95,77,55,30.38,30.24,7,2,13,0.00
2013-1-20,66,53,42,54,47,41,96,84,57,30.27,30.13,3,1,9,0.00
2013-1-21,66,54,44,49,44,41,96,73,43,30.22,30.13,7,1,12,0.01
2013-1-22,61,52,44,46,43,38,92,72,54,30.36,30.19,6,2,14,0.01
2013-1-23,71,55,40,52,46,39,96,76,40,30.40,30.30,5,1,10,0.00
2013-1-24,74,58,45,60,52,44,96,82,55,30.35,30.23,5,1,10,0.01
2013-1-25,73,62,50,60,56,49,96,82,61,30.26,30.15,6,2,15,0.01
2013-1-26,78,62,51,64,56,50,96,82,53,30.25,30.17,5,1,8,0.01
2013-1-27,73,63,52,63,58,51,96,86,67,30.27,30.19,7,2,16,0.01
2013-1-28,76,66,56,67,62,54,95,88,73,30.24,30.11,7,2,14,0.01
2013-1-29,77,72,66,71,68,64,95,89,78,30.11,29.82,9,4,20,0.01
2013-1-30,74,62,49,71,52,30,93,71,37,30.16,29.69,10,6,26,0.72
2013-1-31,60,53,43,38,30,19,76,44,21,30.35,30.16,6,2,15,0.04
2013-2-1,65,52,43,46,40,35,93,67,35,30.40,30.31,9,2,15,0.00
2013-2-2,67,55,43,54,49,41,94,80,59,30.33,30.18,6,2,13,0.00
2013-2-3,67,57,46,53,43,33,94,64,29,30.28,30.12,6,2,12,0.00
2013-2-4,64,55,45,56,49,42,94,83,53,30.12,29.92,6,1,10,0.97
2013-2-5,71,62,57,62,58,55,94,88,72,30.01,29.92,4,2,9,0.78
2013-2-6,63,62,61,59,58,57,94,89,85,30.04,29.93,8,5,14,0.67
2013-2-7,73,64,55,63,59,53,95,85,64,29.95,29.78,13,4,28,1.56
2013-2-8,69,60,53,62,57,52,96,87,71,30.15,29.95,7,2,16,0.02
2013-2-9,66,60,54,60,55,49,92,85,77,30.21,30.03,9,5,16,0.00
2013-2-10,74,69,64,70,66,61,94,89,86,30.04,29.93,9,5,22,0.02
2013-2-11,69,63,57,68,61,55,96,93,83,30.10,29.98,11,4,20,0.35
2013-2-12,76,66,59,72,64,57,96,92,86,30.02,29.75,9,4,18,0.04
2013-2-13,67,53,47,63,49,41,90,85,76,30.06,29.83,9,3,18,0.25
2013-2-14,61,49,41,43,41,39,94,76,47,30.17,30.05,6,1,12,0.01
2013-2-15,64,52,39,51,41,36,96,69,35,30.18,30.07,9,2,16,0.00
2013-2-16,53,49,38,42,31,20,78,52,29,30.29,30.15,11,5,26,0.01
2013-2-17,60,48,35,40,35,28,88,63,39,30.37,30.24,5,2,12,0.01
2013-2-18,65,58,45,60,51,39,88,80,67,30.24,29.99,10,4,20,0.01
2013-2-19,66,60,51,62,47,30,94,65,27,30.23,29.98,9,5,20,0.16
2013-2-20,57,52,46,41,35,30,64,53,46,30.25,30.02,10,6,18,0.01
2013-2-21,75,65,55,67,58,41,94,80,60,30.03,29.79,12,6,24,0.30
2013-2-22,69,65,58,68,60,51,96,85,58,29.97,29.85,7,3,14,0.38
2013-2-23,59,58,56,57,55,54,95,91,86,29.94,29.83,6,3,13,0.70
2013-2-24,61,59,56,60,57,52,96,93,84,29.96,29.74,10,5,25,1.97
2013-2-25,68,62,60,66,61,50,97,94,69,29.74,29.47,10,4,20,4.17
2013-2-26,60,54,47,51,41,36,83,63,51,29.94,29.57,10,4,17,0.03
2013-2-27,68,57,46,51,45,40,96,68,37,30.04,29.93,7,2,15,0.00
2013-2-28,58,52,48,51,36,33,77,55,44,30.14,30.01,8,4,16,0.00
2013-3-1,60,51,45,40,35,29,78,55,34,30.17,30.04,7,3,18,0.00
2013-3-2,51,44,36,35,30,26,77,58,42,30.26,30.14,10,4,20,0.00
2013-3-3,55,44,32,37,29,22,82,58,32,30.30,30.16,9,2,15,0.00
2013-3-4,69,56,38,57,48,36,93,76,54,30.16,29.96,9,3,22,0.00
2013-3-5,75,66,56,63,54,38,89,68,35,30.19,29.95,9,4,18,0.00
2013-3-6,62,54,46,40,31,27,56,43,26,30.33,30.19,11,4,20,0.00
2013-3-7,64,51,42,45,39,33,92,63,39,30.35,30.23,7,2,12,0.00
2013-3-8,69,55,41,49,44,39,95,70,42,30.29,30.18,6,2,10,0.00
2013-3-9,70,60,51,58,53,47,89,78,63,30.20,30.06,10,3,18,0.00
2013-3-12,50,50,50,43,43,43,78,78,78,30.21,30.20,0,0,1,0.00
2013-3-13,66,56,43,45,36,25,91,52,22,30.38,30.21,11,4,20,0.00
2013-3-14,67,55,46,44,34,29,78,46,27,30.45,30.31,8,3,14,0.00
2013-3-15,74,59,44,52,45,41,94,66,33,30.33,30.14,6,2,15,0.00
2013-3-16,77,63,50,59,54,48,96,75,39,30.17,29.97,7,2,16,0.01
2013-3-17,77,66,57,65,61,55,94,83,57,29.98,29.85,6,2,15,0.01
2013-3-18,82,72,67,69,66,63,94,83,60,29.90,29.76,6,2,16,0.02
2013-3-19,74,66,60,65,58,53,95,78,59,30.02,29.87,8,4,16,0.00
2013-3-20,69,62,50,60,44,31,91,54,26,30.16,29.96,11,4,20,0.01
2013-3-21,65,57,47,48,41,34,73,56,35,30.06,29.87,9,3,16,0.01
2013-3-22,76,66,57,68,61,50,92,83,75,29.88,29.77,6,2,15,0.02
2013-3-23,77,70,64,72,67,63,96,93,83,29.83,29.58,6,2,15,0.01
2013-3-24,72,67,53,70,55,31,93,68,26,29.99,29.59,12,6,24,0.01
2013-3-25,59,50,42,34,29,20,69,47,22,30.24,29.99,10,6,20,0.00
2013-3-26,55,48,41,31,27,24,62,45,32,30.40,30.24,9,5,20,0.00
2013-3-27,61,50,39,43,37,29,84,60,45,30.44,30.29,7,3,14,0.00
2013-3-28,67,54,39,51,44,37,95,74,39,30.36,30.25,5,2,12,0.00
2013-3-29,74,60,46,57,51,44,95,74,41,30.33,30.19,6,2,14,0.00
2013-3-30,76,64,51,61,55,-100,95,77,54,30.21,30.03,7,2,16,0.00
2013-3-31,82,66,58,66,61,57,96,85,57,30.06,29.91,12,2,21,0.51
2013-4-1,76,65,59,61,58,54,96,80,49,30.08,29.93,7,2,13,0.05
2013-4-2,75,65,54,63,59,51,96,81,43,30.10,29.96,8,2,17,0.30
2013-4-3,68,63,58,65,60,55,95,91,84,30.00,29.70,15,4,30,3.30
2013-4-4,66,58,53,56,53,47,93,85,70,30.02,29.89,7,3,17,0.01
2013-4-5,66,56,50,51,48,45,88,76,57,30.14,30.01,9,4,18,0.00
2013-4-6,74,61,46,57,52,44,95,75,49,30.16,30.06,7,2,16,0.00
2013-4-7,76,66,54,63,58,52,95,78,57,30.10,30.00,5,2,12,0.00
2013-4-8,81,70,58,69,64,56,95,83,61,30.03,29.94,8,3,15,0.02
2013-4-9,83,75,71,73,70,68,92,86,72,30.01,29.90,9,4,23,0.02
2013-4-10,82,76,71,72,70,68,92,84,70,29.97,29.82,11,5,22,0.00
2013-4-11,77,69,58,72,66,52,94,88,81,29.84,29.64,12,5,25,1.05
2013-4-12,73,62,53,54,49,45,85,65,38,29.98,29.84,10,3,18,0.02
2013-4-13,75,66,53,61,53,49,93,68,40,30.03,29.85,9,4,17,0.00
2013-4-14,74,66,59,65,61,57,96,86,65,29.86,29.70,14,4,23,3.73
2013-4-15,78,69,60,73,67,59,96,93,85,29.98,29.80,5,1,12,0.04
2013-4-16,83,76,72,75,72,70,96,88,75,30.08,29.96,6,3,14,0.01
2013-4-17,84,77,72,75,72,70,94,86,73,30.08,29.95,7,3,15,0.00
2013-4-18,82,76,70,74,71,67,92,85,75,29.95,29.81,7,4,22,0.00
2013-4-19,76,56,47,73,51,44,95,86,69,30.19,29.81,9,4,22,2.00
2013-4-20,54,49,43,46,42,40,95,79,61,30.25,30.19,6,2,12,0.11
2013-4-24,71,65,60,70,64,57,96,95,92,30.16,30.04,7,4,17,1.58
2013-4-25,74,64,57,62,58,53,95,82,62,30.31,30.15,7,4,14,0.01
2013-4-26,77,70,62,65,61,54,91,74,60,30.26,30.20,6,3,15,0.00
2013-4-27,84,74,66,70,68,64,95,82,57,30.20,30.03,4,1,13,0.00
2013-4-28,80,70,64,72,67,62,95,89,63,30.06,29.92,9,1,16,2.50
2013-4-29,82,70,63,71,66,61,95,86,62,29.98,29.87,5,1,12,2.38
2013-4-30,77,69,65,71,67,63,96,92,82,29.93,29.83,5,1,12,1.10
2013-5-1,82,72,66,72,68,64,96,86,65,29.89,29.80,6,2,17,0.14
2013-5-2,78,69,65,70,66,64,95,91,73,29.93,29.83,8,3,16,1.91
2013-5-3,70,62,52,68,58,43,96,87,72,30.02,29.86,10,4,25,0.04
2013-5-4,73,59,42,50,44,34,94,61,31,30.03,29.89,7,2,18,0.01
2013-5-5,66,61,54,57,48,42,88,65,45,30.04,29.87,9,4,20,0.00
2013-5-6,76,62,46,56,49,43,94,65,40,30.06,29.93,6,1,12,0.00
2013-5-7,82,69,55,63,58,53,95,71,44,30.05,29.97,5,1,10,0.00
2013-5-8,85,71,59,67,61,58,95,73,44,30.11,30.02,5,1,12,0.00
2013-5-9,84,73,62,69,66,61,95,78,55,30.11,30.03,6,2,13,0.00
2013-5-10,72,66,63,70,63,-100,96,94,88,30.09,29.91,7,2,21,2.45
2013-5-11,76,68,63,68,64,-100,96,89,75,30.05,29.93,6,1,14,1.20
2013-5-12,79,71,64,67,60,56,96,71,48,30.13,30.03,6,2,13,0.01
2013-5-13,79,68,60,57,50,39,84,55,28,30.29,30.13,8,3,16,0.00
2013-5-14,85,70,55,63,57,52,95,66,35,30.28,30.16,4,1,9,0.00
2013-5-15,83,72,59,66,61,56,95,71,40,30.19,30.03,5,1,12,0.00
2013-5-16,85,71,65,71,48,-100,94,76,55,30.03,29.92,6,2,15,0.00
2013-5-17,87,78,72,73,66,-100,92,79,60,30.03,29.94,5,2,16,0.00
2013-5-18,90,80,73,74,72,69,92,76,53,30.06,29.98,5,2,12,0.00
2013-5-19,86,79,73,75,73,71,93,83,67,30.02,29.95,5,2,12,0.00
2013-5-20,90,81,74,76,74,72,94,80,58,30.00,29.92,6,2,13,0.00
2013-5-21,89,81,74,74,72,71,93,77,57,29.96,29.84,6,2,12,0.00
2013-5-22,81,75,69,74,70,66,93,85,69,30.00,29.84,11,1,20,0.18
2013-5-23,89,79,69,76,72,67,95,79,60,30.04,29.94,3,1,8,0.01
2013-5-24,90,80,69,74,70,66,93,74,54,30.13,30.02,7,2,13,0.01
2013-5-25,87,79,71,69,66,62,86,65,51,30.20,30.11,7,2,14,0.00
2013-5-26,87,77,67,71,65,61,94,70,43,30.18,30.10,6,1,12,0.00
2013-5-27,87,77,66,74,68,64,95,76,60,30.11,30.02,5,2,12,0.00
2013-5-28,87,78,69,72,68,62,91,72,47,30.07,29.99,7,2,15,0.00
2013-5-29,86,80,76,75,73,70,90,81,67,30.01,29.93,8,4,20,0.00
2013-5-30,86,80,76,75,74,71,89,80,69,30.00,29.93,10,4,20,0.04
2013-5-31,88,81,76,77,75,73,93,83,69,30.00,29.94,6,2,13,0.59
2013-6-1,92,83,74,77,73,-100,94,76,54,29.97,29.91,5,2,12,0.01
2013-6-2,86,77,68,77,72,66,95,85,60,30.01,29.85,10,1,26,0.91
2013-6-3,92,81,72,76,73,70,95,78,54,29.91,29.83,4,1,8,0.01
2013-6-4,91,82,74,78,75,72,94,79,59,29.91,29.85,6,2,14,0.09
2013-6-5,90,83,76,77,74,73,91,76,60,29.91,29.79,6,2,14,0.09
2013-6-6,93,79,69,75,72,67,95,80,55,29.85,29.72,6,1,22,1.09
2013-6-7,90,79,71,73,70,68,96,77,52,29.89,29.76,4,1,12,0.27
2013-6-8,92,82,72,75,73,68,93,74,55,29.97,29.87,4,1,12,0.01
2013-6-9,90,79,73,77,74,69,93,84,63,29.97,29.89,7,1,14,0.59
2013-6-10,92,83,77,79,76,74,95,80,60,30.02,29.95,3,1,9,0.14
2013-6-11,95,84,76,78,76,73,95,79,50,30.08,30.01,5,1,12,0.14
2013-6-12,96,85,74,79,74,68,95,72,41,30.09,30.00,3,1,9,0.14
2013-6-13,96,85,75,78,74,71,93,70,48,30.06,29.88,5,1,9,0.00
2013-6-14,96,86,79,78,76,70,91,72,50,29.94,29.83,7,3,13,0.00
2013-6-15,94,86,79,79,74,70,82,69,57,30.00,29.91,6,2,15,0.00
2013-6-16,93,84,78,79,76,74,92,79,58,30.03,29.96,5,1,10,0.17
2013-6-17,94,84,76,78,75,73,93,75,52,30.02,29.92,3,1,12,0.50
2013-6-18,95,85,75,76,72,67,91,67,40,30.01,29.89,5,1,14,0.13
2013-6-19,88,82,72,75,73,70,94,75,59,30.02,29.93,7,1,13,0.00
2013-6-20,90,80,75,76,73,69,93,81,57,30.12,30.00,6,1,16,0.06
2013-6-22,88,84,79,76,74,72,85,74,64,30.10,29.99,8,2,20,0.19
2013-6-23,95,81,74,77,74,71,94,79,53,30.06,30.00,3,1,10,0.03
2013-6-24,95,85,74,79,74,70,94,73,46,30.13,30.04,5,1,10,0.40
2013-6-25,93,84,76,78,76,73,92,77,57,30.10,30.00,4,1,12,0.02
2013-6-26,94,84,76,79,76,73,94,78,55,30.04,29.96,6,1,13,0.48
2013-6-27,95,86,76,79,76,74,93,75,53,30.01,29.91,3,1,8,0.01
2013-6-28,98,88,80,79,76,72,91,72,45,29.94,29.78,5,1,13,0.00
2013-6-29,92,82,74,78,75,71,94,80,56,29.85,29.69,5,1,13,0.47
2013-6-30,93,84,73,77,68,58,93,63,33,29.79,29.70,7,2,16,0.01
2013-7-1,90,82,71,73,67,63,94,62,44,29.90,29.79,5,1,12,0.14
2013-7-2,93,81,74,74,70,66,93,72,46,29.98,29.88,2,0,6,0.83
2013-7-3,90,79,73,73,71,69,92,78,56,30.01,29.91,2,0,7,0.03
2013-7-4,90,81,75,76,74,72,92,79,61,29.97,29.91,2,0,6,0.01
2013-7-5,78,74,73,76,72,70,96,93,84,30.04,29.94,1,0,7,1.56
2013-7-6,86,78,73,77,74,71,96,87,73,29.99,29.94,1,0,3,0.12
2013-7-7,90,80,74,78,75,72,94,85,62,30.11,29.97,1,0,6,0.09
2013-7-8,90,78,74,79,74,72,95,87,64,30.15,30.05,2,0,5,0.02
2013-7-9,94,82,72,78,74,70,96,79,52,30.18,30.07,1,0,5,0.01
2013-7-10,94,82,74,78,72,-100,95,76,51,30.11,29.97,2,0,6,0.00
2013-7-11,88,78,71,78,74,69,96,88,71,30.00,29.87,3,0,12,3.70
2013-7-12,95,81,70,77,73,68,96,78,52,29.94,29.83,1,0,5,0.02
2013-7-13,91,81,73,80,73,70,94,79,57,29.93,29.85,2,0,6,0.00
2013-7-14,91,81,72,77,73,68,94,77,55,30.00,29.89,2,0,6,0.00
2013-7-15,92,81,73,78,74,70,95,81,58,30.08,29.98,2,0,6,0.02
2013-7-16,88,81,77,77,75,73,89,82,67,30.14,30.04,2,0,6,0.01
2013-7-17,91,82,76,79,74,72,91,79,59,30.19,30.09,2,0,7,0.14
2013-7-18,93,81,72,77,74,70,96,80,55,30.13,29.99,2,0,8,0.08
2013-7-19,93,83,72,77,74,70,96,77,55,30.05,29.93,2,0,6,0.01
2013-7-20,89,79,73,78,72,-100,96,82,60,30.00,29.92,3,0,7,0.03
2013-7-21,83,77,74,78,74,71,95,90,78,30.09,29.98,1,0,7,0.77
2013-7-22,88,81,76,82,76,73,96,86,67,30.06,29.99,3,0,10,0.60
2013-7-23,94,84,76,79,76,74,96,80,57,30.06,29.93,3,0,8,0.01
2013-7-24,92,84,76,79,76,73,93,78,56,29.98,29.88,1,0,9,0.00
2013-7-25,91,84,78,77,74,71,91,74,53,30.02,29.90,2,1,10,0.00
2013-7-26,93,84,74,77,73,69,94,72,47,30.05,29.95,2,0,6,0.00
2013-7-27,83,79,75,79,75,72,95,89,78,29.97,29.86,3,0,8,0.39
2013-7-28,90,82,75,78,74,71,95,80,56,30.00,29.88,2,0,7,0.30
2013-7-29,94,83,74,78,74,72,96,78,50,30.09,29.98,3,0,7,0.00
2013-7-30,95,82,76,79,76,74,95,83,54,30.13,30.06,2,0,7,1.24
2013-7-31,92,81,76,80,76,74,96,86,63,30.10,29.97,1,0,5,0.75
2013-8-1,93,84,75,79,76,72,96,77,50,30.02,29.91,3,0,24,0.01
2013-8-2,97,86,76,80,76,71,93,74,46,30.01,29.91,1,0,6,0.00
2013-8-3,94,82,75,80,76,72,95,84,59,30.06,29.97,3,0,14,1.97
2013-8-4,96,84,75,80,76,70,95,79,46,30.09,29.97,2,0,7,0.01
2013-8-5,96,86,77,80,77,75,94,77,53,30.05,29.94,2,0,7,0.01
2013-8-6,96,86,77,79,77,74,94,77,51,30.00,29.91,1,0,6,0.00
2013-8-7,96,86,77,80,77,72,94,76,50,29.98,29.88,1,0,3,0.00
2013-8-8,97,85,78,79,77,75,93,78,55,29.95,29.88,2,0,6,0.00
2013-8-9,96,83,76,80,76,73,94,82,54,30.01,29.90,1,0,5,0.06
2013-8-10,97,85,76,80,75,72,95,76,46,30.06,29.98,2,0,5,0.07
2013-8-11,94,82,77,79,76,73,94,82,57,30.10,30.04,1,0,7,0.13
2013-8-12,93,82,77,82,77,74,96,86,63,30.10,30.01,2,0,5,0.03
2013-8-13,91,78,72,81,74,-100,95,89,67,30.05,29.94,3,0,10,0.74
2013-8-14,80,74,73,77,69,-100,95,93,90,29.99,29.91,2,0,6,1.10
2013-8-15,89,74,72,78,60,-100,96,80,60,29.97,29.90,1,0,5,0.03
2013-8-16,91,78,74,78,70,-100,95,82,58,29.96,29.89,3,0,7,0.58
2013-8-17,85,77,75,76,72,-100,93,84,68,29.96,29.90,2,0,7,0.01
2013-8-18,82,78,74,75,73,71,93,86,77,29.99,29.90,2,0,7,0.01
2013-8-19,90,74,70,78,62,-100,96,86,68,30.03,29.96,2,0,6,0.79
2013-8-20,91,78,72,81,73,-100,96,87,63,30.05,29.97,3,0,9,1.17
2013-8-21,91,80,74,79,75,72,95,86,65,30.10,30.02,1,0,3,0.21
2013-8-22,91,83,73,78,75,70,93,77,59,30.08,29.95,2,0,7,0.20
2013-8-23,86,80,76,77,74,72,93,83,69,29.99,29.92,2,0,9,0.08
2013-8-24,80,76,75,75,71,-100,94,88,82,30.08,29.95,1,0,5,0.11
2013-8-25,85,78,74,76,74,72,93,88,73,30.15,30.06,1,0,5,0.81
2013-8-26,87,78,74,77,74,71,94,87,70,30.16,30.08,2,0,6,0.63
2013-8-27,91,78,70,75,71,68,95,80,49,30.11,30.04,1,0,5,0.08
2013-8-28,90,83,71,69,66,64,89,60,44,30.07,30.00,1,0,7,0.00
2013-8-29,90,79,68,74,70,66,95,76,52,30.06,29.97,1,0,3,0.00
2013-8-30,91,80,70,76,71,68,95,78,55,30.03,29.92,1,0,5,0.00
2013-8-31,95,81,73,77,72,-100,95,77,48,29.98,29.86,1,0,3,0.00
2013-9-1,93,83,74,79,75,72,95,77,54,29.94,29.85,5,1,12,0.01
2013-9-2,95,84,76,77,75,71,92,75,49,29.98,29.86,3,1,10,0.14
2013-9-3,96,85,77,78,76,72,92,76,48,29.98,29.86,3,1,10,0.06
2013-9-4,95,85,76,78,75,73,92,74,52,30.05,29.93,3,1,10,0.00
2013-9-5,91,83,76,77,75,71,93,78,58,30.09,30.02,5,1,17,0.00
2013-9-6,93,82,76,78,75,72,93,79,56,30.09,29.98,7,1,13,0.31
2013-9-7,91,80,76,77,72,-100,93,79,50,30.03,29.96,6,1,12,0.02
2013-9-8,92,82,73,76,73,70,93,76,51,29.99,29.92,6,2,12,0.00
2013-9-9,92,82,73,77,73,69,94,74,48,30.03,29.94,6,2,13,0.00
2013-9-10,89,81,73,78,74,70,91,79,61,30.09,30.00,7,2,18,0.04
2013-9-11,90,81,76,74,72,71,85,76,54,30.07,30.01,5,2,15,0.04
2013-9-12,92,83,76,76,73,69,90,72,50,30.03,29.91,7,2,15,0.00
2013-9-13,93,83,73,76,73,67,94,73,43,29.93,29.80,4,1,9,0.00
2013-9-14,90,80,76,77,72,-100,92,79,65,29.96,29.85,8,2,15,0.15
2013-9-15,93,81,74,76,74,72,92,79,53,30.03,29.94,5,1,12,0.03
2013-9-16,90,82,75,78,75,73,92,80,66,30.06,29.99,7,2,16,0.02
2013-9-17,91,83,76,76,75,73,92,78,60,30.06,29.95,7,2,14,0.02
2013-9-18,80,79,78,75,75,74,89,86,83,30.00,29.97,4,1,8,0.00
2013-9-19,90,81,76,79,75,73,92,84,65,30.02,29.94,7,2,15,2.30
2013-9-20,91,84,77,78,76,74,93,79,60,29.98,29.80,5,2,13,0.01
2013-9-21,81,77,73,76,72,-100,95,89,84,29.82,29.70,6,1,12,3.14
2013-9-22,80,74,71,72,68,64,94,81,69,29.80,29.71,7,4,14,0.80
2013-9-23,89,80,72,78,73,65,89,79,66,29.84,29.77,6,2,13,0.00
2013-9-24,92,82,78,81,77,74,94,84,65,29.83,29.73,4,1,13,0.20
2013-9-25,92,81,73,74,70,59,93,72,35,29.84,29.75,6,1,12,0.02
2013-9-26,87,78,67,70,66,62,92,70,43,29.93,29.81,7,1,12,0.00
2013-9-27,87,78,68,73,69,66,94,77,53,30.00,29.91,6,2,14,0.00
2013-9-28,88,77,69,73,66,-100,93,73,55,30.05,29.98,6,1,12,0.00
2013-9-29,87,77,67,73,69,65,94,78,57,30.04,29.93,5,1,10,0.00
2013-9-30,84,78,74,75,72,71,91,83,72,29.95,29.90,4,1,12,0.08
2013-10-1,77,76,76,74,73,72,91,89,86,30.01,29.97,3,2,8,0.03
2013-10-2,83,78,73,76,74,70,93,87,75,30.03,29.95,6,2,12,0.16
2013-10-3,90,81,74,77,74,72,94,81,59,30.01,29.92,6,2,13,0.01
2013-10-4,87,79,73,76,73,70,92,83,65,30.01,29.94,7,2,15,0.37
2013-10-5,88,79,76,76,74,71,93,84,63,29.98,29.88,7,2,15,0.57
2013-10-6,87,77,69,76,71,55,94,82,62,29.93,29.80,9,3,20,0.21
2013-10-7,75,70,64,56,54,51,71,58,44,30.03,29.93,9,5,20,0.18
2013-10-8,77,68,59,59,56,53,90,68,47,30.04,29.97,5,2,12,0.00
2013-10-9,86,70,57,68,62,55,95,76,48,30.08,29.99,3,1,9,0.00
2013-10-10,82,73,64,72,68,62,95,84,69,30.09,29.99,6,1,12,0.00
2013-10-11,85,75,67,74,70,65,95,85,61,30.03,29.96,7,1,12,0.11
2013-10-12,89,77,69,74,69,-100,95,81,57,30.08,29.98,4,1,9,0.32
2013-10-13,88,79,71,74,70,65,94,76,47,30.16,30.04,5,0,8,0.16
2013-10-14,85,76,70,71,67,62,94,76,48,30.10,30.01,6,2,12,0.00
2013-10-15,88,76,67,72,68,65,95,78,50,30.03,29.93,4,1,10,0.00
2013-10-16,88,77,69,73,70,67,94,81,59,30.00,29.90,3,1,10,0.00
2013-10-17,80,75,68,74,70,62,94,83,71,29.98,29.90,6,2,15,0.00
2013-10-18,73,69,65,63,61,60,85,77,67,30.03,29.91,6,3,13,0.00
2013-10-19,70,66,59,66,61,-100,94,86,73,30.01,29.88,10,2,20,1.07
2013-10-20,74,64,56,60,58,53,94,80,59,30.08,29.98,6,2,12,0.02
2013-10-21,74,68,61,66,63,58,92,85,75,30.05,29.96,5,2,12,0.01
2013-10-22,78,71,66,65,62,55,91,74,47,30.00,29.91,6,2,14,0.01
2013-10-23,74,67,59,59,53,46,82,62,40,30.13,29.99,8,2,14,0.00
2013-10-24,81,65,50,59,52,47,94,68,34,30.22,30.11,3,0,6,0.00
2013-10-25,69,63,58,56,47,43,90,56,43,30.37,30.21,10,4,17,0.00
2013-10-26,76,62,51,58,51,-100,92,69,46,30.30,30.15,4,1,9,0.00
2013-10-27,77,65,52,63,58,50,95,81,60,30.16,30.04,3,0,8,0.01
2013-10-28,83,70,61,68,62,-100,95,80,56,30.18,30.06,4,1,10,0.01
2013-10-29,82,71,62,68,64,60,95,80,53,30.22,30.14,5,2,15,0.01
2013-10-30,81,74,67,70,68,65,93,82,67,30.18,30.03,5,1,14,0.01
2013-10-31,83,76,69,73,70,67,93,84,68,30.03,29.82,7,3,20,0.31
2013-11-1,77,68,57,69,60,53,94,78,45,29.93,29.80,5,1,13,0.41
2013-11-2,73,64,54,60,50,-100,95,66,40,30.15,29.92,8,3,18,0.01
2013-11-3,66,59,51,50,46,42,78,64,44,30.23,30.13,8,4,16,0.01
2013-11-4,70,64,50,63,58,46,89,81,69,30.23,30.13,11,3,20,0.00
2013-11-5,76,70,67,67,64,62,87,82,71,30.19,30.09,9,5,18,0.00
2013-11-6,80,72,66,72,68,64,94,88,76,30.11,30.02,8,2,17,0.10
2013-11-7,70,61,53,68,53,43,94,77,53,30.29,30.06,11,6,24,0.03
2013-11-8,65,56,49,44,39,33,72,54,32,30.33,30.19,12,5,20,0.00
2013-11-9,73,60,48,60,52,-100,93,76,60,30.23,30.15,5,2,10,0.00
2013-11-10,74,65,56,60,56,53,93,74,52,30.26,30.17,6,3,14,0.00
2013-11-11,77,65,56,60,55,50,92,72,54,30.23,30.13,5,1,10,0.00
2013-11-12,72,59,46,56,51,35,95,76,51,30.46,30.17,14,5,26,0.00
2013-11-13,55,46,37,34,28,24,65,50,33,30.52,30.39,12,6,21,0.00
2013-11-14,62,54,43,58,46,32,89,74,58,30.39,30.10,7,4,16,0.00
2013-11-15,73,64,59,67,61,55,94,90,82,30.11,29.97,5,2,12,0.21
2013-11-16,77,67,60,70,63,-100,95,89,78,30.06,29.95,5,1,12,0.01
2013-11-17,81,74,69,75,71,67,95,90,80,29.98,29.89,6,1,13,0.03
2013-11-18,75,67,61,73,60,44,95,80,50,30.08,29.95,12,2,22,2.21
2013-11-19,63,58,53,44,40,37,61,52,39,30.15,30.03,9,5,21,0.01
2013-11-20,70,58,46,60,50,38,92,75,59,30.12,30.02,5,2,10,0.00
2013-11-21,69,65,62,65,62,59,93,91,86,30.18,30.09,7,4,14,0.00
2013-11-22,81,68,63,72,66,61,95,91,73,30.21,30.13,7,2,20,0.85
2013-11-23,67,60,51,66,56,-100,95,90,75,30.30,30.14,11,5,21,0.01
2013-11-24,55,49,44,43,32,28,74,53,35,30.37,30.26,12,7,22,0.01
2013-11-25,64,53,44,63,48,30,96,83,57,30.28,29.83,9,4,15,0.24
2013-11-26,61,49,43,60,47,41,96,92,86,30.03,29.75,10,5,24,0.90
2013-11-27,48,43,38,41,33,28,92,67,48,30.40,30.03,10,6,25,0.26
2013-11-28,47,39,32,34,30,27,93,72,45,30.50,30.39,5,2,12,0.00
2013-11-29,56,41,29,38,30,23,95,70,27,30.53,30.43,7,2,13,0.00
2013-11-30,65,48,32,49,39,-100,95,76,49,30.43,30.25,5,1,12,0.01
2013-12-1,70,57,44,55,50,42,95,81,55,30.28,30.00,3,0,6,0.01
2013-12-2,73,62,53,63,58,51,93,85,71,30.01,29.79,5,1,12,0.00
2013-12-3,77,69,61,68,65,59,95,88,72,29.83,29.74,7,3,18,0.01
2013-12-4,79,73,68,73,70,67,95,91,75,29.94,29.82,7,2,14,0.04
2013-12-5,79,74,71,74,72,69,95,93,84,30.02,29.92,5,2,15,0.03
2013-12-6,79,68,48,74,65,45,95,90,82,30.20,29.94,8,4,18,0.15
2013-12-7,47,44,42,45,42,40,94,92,90,30.31,30.19,12,7,20,0.22
2013-12-8,54,52,48,53,50,46,96,95,93,30.14,30.03,4,2,12,0.01
2013-12-9,53,53,52,52,52,51,96,96,96,30.07,30.06,3,1,8,0.02
2013-12-17,42,41,40,39,38,37,91,89,88,30.31,30.30,0,0,0,0.01
2013-12-18,65,50,37,48,42,35,96,77,45,30.37,30.22,5,1,12,0.01
2013-12-19,74,62,50,61,56,47,94,81,60,30.22,30.03,7,2,16,0.00
2013-12-20,77,69,63,70,65,59,93,88,76,30.07,29.96,7,2,15,0.00
2013-12-21,78,72,68,72,68,-100,94,89,82,29.95,29.76,10,5,23,0.00
2013-12-22,73,60,55,71,58,52,95,93,88,30.16,29.83,7,2,14,4.03
2013-12-23,56,47,39,55,43,34,95,85,75,30.46,30.12,9,5,20,1.04
2013-12-24,51,42,34,36,33,30,87,71,50,30.52,30.38,7,4,17,0.01
2013-12-25,48,44,38,35,33,30,82,64,50,30.40,30.30,6,3,12,0.00
2013-12-26,54,47,42,40,35,30,79,64,46,30.38,30.28,6,3,12,0.00
2013-12-27,59,52,43,42,38,36,81,61,44,30.40,30.27,9,4,15,0.00
2013-12-28,53,48,46,48,44,-100,94,89,62,30.28,29.96,8,3,13,1.84
2013-12-29,60,52,44,48,46,42,95,83,57,30.14,29.98,5,2,10,0.08
2013-12-30,59,51,43,50,46,41,95,85,66,30.32,30.11,3,0,8,0.00
2013-12-31,51,46,44,48,42,39,91,86,80,30.42,30.30,6,4,13,0.07
2014-1-1,64,54,46,58,51,44,94,91,82,30.32,30.03,5,2,10,0.09
2014-1-2,59,53,41,57,46,27,96,76,47,30.36,29.95,13,5,26,0.91